KGAO

South Lafourche Leonard Miller Jr Airport

Galliano, Louisiana, USA
METAR KGAO 230955Z AUTO 11005KT 10SM SCT013 BKN060 OVC090 23/20 A3023 RMK AO2 T02280197
Observed Flight Rules
Feb-23 @ 09:55 UTC (30 minutes ago) Visual Flight Rules
Wind Visibility Clouds
110° at 5 knots 10 miles
  • Scattered at 1,300' AGL
  • Broken at 6,000' AGL
  • Overcast at 9,000' AGL
Temperatures Readings
Current 23°C / 73°F
Dewpoint 20°C / 68°F
Humidity 83%
Altimeter 30.23" Hg
Pressure 1024 hPa
Elevation 1
METAR KGAO 230955Z AUTO 11005KT 10SM SCT013 BKN060 OVC090 23/20 A3023 RMK AO2 T02280197
Observed Flight Rules
Feb-23 @ 09:55 UTC
(30 minutes ago)
VFR
Wind Visibility
110° at 5 knots 10 miles
Clouds
  • Scattered at 1,300' AGL
  • Broken at 6,000' AGL
  • Overcast at 9,000' AGL
Temperature Dewpoint
23°C / 73°F 20°C / 68°F
Humidity Altimeter Pressure
83% 30.23" Hg 1024 hPa